sensor_id;sensor_type;location;lat;lon;timestamp;P1;durP1;ratioP1;P2;durP2;ratioP2
7471;SDS011;3777;48.722;8.110;2022-07-04T00:01:48;3.33;;;1.80;;
7471;SDS011;3777;48.722;8.110;2022-07-04T00:04:15;1.90;;;1.80;;
7471;SDS011;3777;48.722;8.110;2022-07-04T00:06:41;3.10;;;1.87;;
7471;SDS011;3777;48.722;8.110;2022-07-04T00:09:08;4.50;;;2.00;;
7471;SDS011;3777;48.722;8.110;2022-07-04T00:11:37;4.53;;;2.00;;
7471;SDS011;3777;48.722;8.110;2022-07-04T00:14:04;2.00;;;1.80;;
7471;SDS011;3777;48.722;8.110;2022-07-04T00:16:31;3.33;;;1.80;;
7471;SDS011;3777;48.722;8.110;2022-07-04T00:18:59;2.40;;;1.90;;
7471;SDS011;3777;48.722;8.110;2022-07-04T00:21:26;2.40;;;1.87;;
7471;SDS011;3777;48.722;8.110;2022-07-04T00:23:53;2.80;;;1.90;;
7471;SDS011;3777;48.722;8.110;2022-07-04T00:26:20;2.63;;;2.00;;
7471;SDS011;3777;48.722;8.110;2022-07-04T00:28:48;3.40;;;2.00;;
7471;SDS011;3777;48.722;8.110;2022-07-04T00:31:15;2.38;;;2.10;;
7471;SDS011;3777;48.722;8.110;2022-07-04T00:33:42;2.30;;;2.10;;
7471;SDS011;3777;48.722;8.110;2022-07-04T00:36:09;5.75;;;1.90;;
7471;SDS011;3777;48.722;8.110;2022-07-04T00:38:36;5.00;;;1.90;;
7471;SDS011;3777;48.722;8.110;2022-07-04T00:41:03;2.70;;;1.98;;
7471;SDS011;3777;48.722;8.110;2022-07-04T00:43:30;4.00;;;1.83;;
7471;SDS011;3777;48.722;8.110;2022-07-04T00:46:01;3.40;;;1.88;;
7471;SDS011;3777;48.722;8.110;2022-07-04T00:48:29;2.33;;;1.80;;
7471;SDS011;3777;48.722;8.110;2022-07-04T00:50:56;2.83;;;1.90;;
7471;SDS011;3777;48.722;8.110;2022-07-04T00:53:24;1.90;;;1.70;;
7471;SDS011;3777;48.722;8.110;2022-07-04T00:55:52;2.17;;;1.90;;
7471;SDS011;3777;48.722;8.110;2022-07-04T00:58:19;2.97;;;1.80;;
7471;SDS011;3777;48.722;8.110;2022-07-04T01:00:48;2.07;;;1.70;;
7471;SDS011;3777;48.722;8.110;2022-07-04T01:03:17;2.47;;;1.65;;
7471;SDS011;3777;48.722;8.110;2022-07-04T01:05:44;3.03;;;2.00;;
7471;SDS011;3777;48.722;8.110;2022-07-04T01:08:12;3.95;;;1.98;;
7471;SDS011;3777;48.722;8.110;2022-07-04T01:10:39;3.58;;;1.92;;
7471;SDS011;3777;48.722;8.110;2022-07-04T01:13:06;2.93;;;1.80;;
7471;SDS011;3777;48.722;8.110;2022-07-04T01:15:33;3.22;;;1.80;;
7471;SDS011;3777;48.722;8.110;2022-07-04T01:18:00;3.33;;;2.00;;
7471;SDS011;3777;48.722;8.110;2022-07-04T01:20:34;3.23;;;2.03;;
7471;SDS011;3777;48.722;8.110;2022-07-04T01:23:02;5.27;;;2.00;;
7471;SDS011;3777;48.722;8.110;2022-07-04T01:25:29;2.45;;;1.98;;
7471;SDS011;3777;48.722;8.110;2022-07-04T01:27:57;2.65;;;1.88;;
7471;SDS011;3777;48.722;8.110;2022-07-04T01:30:25;2.73;;;1.83;;
7471;SDS011;3777;48.722;8.110;2022-07-04T01:32:52;3.17;;;1.90;;
7471;SDS011;3777;48.722;8.110;2022-07-04T01:35:20;3.57;;;2.00;;
7471;SDS011;3777;48.722;8.110;2022-07-04T01:37:48;3.73;;;1.77;;
7471;SDS011;3777;48.722;8.110;2022-07-04T01:40:15;3.10;;;1.80;;
7471;SDS011;3777;48.722;8.110;2022-07-04T01:42:43;2.97;;;2.00;;
7471;SDS011;3777;48.722;8.110;2022-07-04T01:45:10;3.30;;;2.10;;
7471;SDS011;3777;48.722;8.110;2022-07-04T01:47:38;4.18;;;2.08;;
7471;SDS011;3777;48.722;8.110;2022-07-04T01:50:06;4.18;;;1.90;;
7471;SDS011;3777;48.722;8.110;2022-07-04T01:52:37;4.70;;;1.73;;
7471;SDS011;3777;48.722;8.110;2022-07-04T01:55:06;5.85;;;1.70;;
7471;SDS011;3777;48.722;8.110;2022-07-04T01:57:34;3.67;;;1.70;;
7471;SDS011;3777;48.722;8.110;2022-07-04T02:00:02;2.97;;;1.80;;
7471;SDS011;3777;48.722;8.110;2022-07-04T02:02:47;2.15;;;1.55;;
7471;SDS011;3777;48.722;8.110;2022-07-04T02:05:13;3.00;;;1.90;;
7471;SDS011;3777;48.722;8.110;2022-07-04T02:07:41;3.08;;;1.65;;
7471;SDS011;3777;48.722;8.110;2022-07-04T02:10:10;2.63;;;1.73;;
7471;SDS011;3777;48.722;8.110;2022-07-04T02:12:37;2.38;;;1.60;;
7471;SDS011;3777;48.722;8.110;2022-07-04T02:15:25;3.63;;;1.90;;
7471;SDS011;3777;48.722;8.110;2022-07-04T02:17:52;2.15;;;1.65;;
7471;SDS011;3777;48.722;8.110;2022-07-04T02:20:19;5.47;;;1.92;;
7471;SDS011;3777;48.722;8.110;2022-07-04T02:22:46;3.63;;;1.90;;
7471;SDS011;3777;48.722;8.110;2022-07-04T02:25:14;3.17;;;1.88;;
7471;SDS011;3777;48.722;8.110;2022-07-04T02:27:41;2.60;;;1.75;;
7471;SDS011;3777;48.722;8.110;2022-07-04T02:30:09;2.70;;;2.00;;
7471;SDS011;3777;48.722;8.110;2022-07-04T02:32:36;4.83;;;1.90;;
7471;SDS011;3777;48.722;8.110;2022-07-04T02:35:04;2.78;;;1.70;;
7471;SDS011;3777;48.722;8.110;2022-07-04T02:37:32;3.35;;;1.90;;
7471;SDS011;3777;48.722;8.110;2022-07-04T02:39:59;2.10;;;1.80;;
7471;SDS011;3777;48.722;8.110;2022-07-04T02:42:29;4.43;;;2.00;;
7471;SDS011;3777;48.722;8.110;2022-07-04T02:44:56;4.78;;;2.00;;
7471;SDS011;3777;48.722;8.110;2022-07-04T02:47:23;3.63;;;1.70;;
7471;SDS011;3777;48.722;8.110;2022-07-04T02:49:51;3.40;;;2.23;;
7471;SDS011;3777;48.722;8.110;2022-07-04T02:52:18;4.03;;;1.80;;
7471;SDS011;3777;48.722;8.110;2022-07-04T02:54:45;5.53;;;2.20;;
7471;SDS011;3777;48.722;8.110;2022-07-04T02:57:13;3.30;;;2.07;;
7471;SDS011;3777;48.722;8.110;2022-07-04T02:59:42;2.47;;;1.77;;
7471;SDS011;3777;48.722;8.110;2022-07-04T03:02:09;3.10;;;1.67;;
7471;SDS011;3777;48.722;8.110;2022-07-04T03:04:36;2.97;;;1.80;;
7471;SDS011;3777;48.722;8.110;2022-07-04T03:07:05;4.97;;;2.07;;
7471;SDS011;3777;48.722;8.110;2022-07-04T03:09:32;3.10;;;1.83;;
7471;SDS011;3777;48.722;8.110;2022-07-04T03:11:59;5.37;;;2.00;;
7471;SDS011;3777;48.722;8.110;2022-07-04T03:14:27;3.33;;;1.93;;
7471;SDS011;3777;48.722;8.110;2022-07-04T03:16:55;3.57;;;1.97;;
7471;SDS011;3777;48.722;8.110;2022-07-04T03:19:22;4.13;;;1.63;;
7471;SDS011;3777;48.722;8.110;2022-07-04T03:21:49;3.20;;;1.83;;
7471;SDS011;3777;48.722;8.110;2022-07-04T03:24:16;2.53;;;1.93;;
7471;SDS011;3777;48.722;8.110;2022-07-04T03:26:43;3.10;;;1.90;;
7471;SDS011;3777;48.722;8.110;2022-07-04T03:29:10;2.00;;;1.70;;
7471;SDS011;3777;48.722;8.110;2022-07-04T03:31:37;2.17;;;1.90;;
7471;SDS011;3777;48.722;8.110;2022-07-04T03:34:06;3.47;;;1.90;;
7471;SDS011;3777;48.722;8.110;2022-07-04T03:36:33;3.20;;;1.63;;
7471;SDS011;3777;48.722;8.110;2022-07-04T03:39:00;4.10;;;2.00;;
7471;SDS011;3777;48.722;8.110;2022-07-04T03:41:27;2.70;;;2.00;;
7471;SDS011;3777;48.722;8.110;2022-07-04T03:43:54;3.53;;;1.90;;
7471;SDS011;3777;48.722;8.110;2022-07-04T03:46:21;3.97;;;1.90;;
7471;SDS011;3777;48.722;8.110;2022-07-04T03:48:48;3.10;;;2.20;;
7471;SDS011;3777;48.722;8.110;2022-07-04T03:51:16;4.43;;;1.80;;
7471;SDS011;3777;48.722;8.110;2022-07-04T03:53:43;2.43;;;1.83;;
7471;SDS011;3777;48.722;8.110;2022-07-04T03:56:10;3.80;;;1.80;;
7471;SDS011;3777;48.722;8.110;2022-07-04T03:58:37;3.37;;;2.07;;
7471;SDS011;3777;48.722;8.110;2022-07-04T04:01:04;3.27;;;1.87;;
7471;SDS011;3777;48.722;8.110;2022-07-04T04:03:31;4.20;;;1.83;;
7471;SDS011;3777;48.722;8.110;2022-07-04T04:06:17;2.93;;;1.90;;
7471;SDS011;3777;48.722;8.110;2022-07-04T04:08:44;4.27;;;2.03;;
7471;SDS011;3777;48.722;8.110;2022-07-04T04:11:11;4.50;;;1.97;;
7471;SDS011;3777;48.722;8.110;2022-07-04T04:13:38;3.83;;;1.93;;
7471;SDS011;3777;48.722;8.110;2022-07-04T04:16:05;3.03;;;2.20;;
7471;SDS011;3777;48.722;8.110;2022-07-04T04:18:32;3.50;;;2.17;;
7471;SDS011;3777;48.722;8.110;2022-07-04T04:20:59;3.20;;;2.23;;
7471;SDS011;3777;48.722;8.110;2022-07-04T04:23:28;2.97;;;1.90;;
7471;SDS011;3777;48.722;8.110;2022-07-04T04:25:55;2.77;;;1.87;;
7471;SDS011;3777;48.722;8.110;2022-07-04T04:28:22;1.83;;;1.63;;
7471;SDS011;3777;48.722;8.110;2022-07-04T04:30:49;3.23;;;2.07;;
7471;SDS011;3777;48.722;8.110;2022-07-04T04:33:16;2.83;;;1.90;;
7471;SDS011;3777;48.722;8.110;2022-07-04T04:35:43;3.93;;;1.90;;
7471;SDS011;3777;48.722;8.110;2022-07-04T04:38:10;3.70;;;2.00;;
7471;SDS011;3777;48.722;8.110;2022-07-04T04:40:39;2.67;;;2.13;;
7471;SDS011;3777;48.722;8.110;2022-07-04T04:43:06;2.70;;;2.20;;
7471;SDS011;3777;48.722;8.110;2022-07-04T04:45:32;2.20;;;1.90;;
7471;SDS011;3777;48.722;8.110;2022-07-04T04:47:59;3.45;;;2.20;;
7471;SDS011;3777;48.722;8.110;2022-07-04T04:50:26;5.33;;;2.57;;
7471;SDS011;3777;48.722;8.110;2022-07-04T04:52:53;3.17;;;2.10;;
7471;SDS011;3777;48.722;8.110;2022-07-04T04:55:20;2.40;;;2.05;;
7471;SDS011;3777;48.722;8.110;2022-07-04T04:57:49;2.42;;;1.95;;
7471;SDS011;3777;48.722;8.110;2022-07-04T05:00:16;3.67;;;2.17;;
7471;SDS011;3777;48.722;8.110;2022-07-04T05:02:43;4.13;;;1.95;;
7471;SDS011;3777;48.722;8.110;2022-07-04T05:05:10;3.95;;;2.22;;
7471;SDS011;3777;48.722;8.110;2022-07-04T05:07:37;3.28;;;2.00;;
7471;SDS011;3777;48.722;8.110;2022-07-04T05:10:05;4.30;;;2.00;;
7471;SDS011;3777;48.722;8.110;2022-07-04T05:12:33;3.33;;;2.20;;
7471;SDS011;3777;48.722;8.110;2022-07-04T05:15:02;3.10;;;2.00;;
7471;SDS011;3777;48.722;8.110;2022-07-04T05:17:29;4.45;;;2.17;;
7471;SDS011;3777;48.722;8.110;2022-07-04T05:19:56;4.53;;;2.13;;
7471;SDS011;3777;48.722;8.110;2022-07-04T05:22:23;3.22;;;1.92;;
7471;SDS011;3777;48.722;8.110;2022-07-04T05:24:50;4.07;;;2.33;;
7471;SDS011;3777;48.722;8.110;2022-07-04T05:27:17;4.30;;;2.17;;
7471;SDS011;3777;48.722;8.110;2022-07-04T05:29:44;4.82;;;2.00;;
7471;SDS011;3777;48.722;8.110;2022-07-04T05:32:13;5.35;;;1.75;;
7471;SDS011;3777;48.722;8.110;2022-07-04T05:34:40;3.83;;;2.13;;
7471;SDS011;3777;48.722;8.110;2022-07-04T05:37:07;3.40;;;1.77;;
7471;SDS011;3777;48.722;8.110;2022-07-04T05:39:34;3.22;;;2.03;;
7471;SDS011;3777;48.722;8.110;2022-07-04T05:42:01;3.20;;;1.95;;
7471;SDS011;3777;48.722;8.110;2022-07-04T05:44:29;2.58;;;1.90;;
7471;SDS011;3777;48.722;8.110;2022-07-04T05:46:56;3.60;;;2.03;;
7471;SDS011;3777;48.722;8.110;2022-07-04T05:49:24;2.05;;;1.60;;
7471;SDS011;3777;48.722;8.110;2022-07-04T05:51:51;2.42;;;1.70;;
7471;SDS011;3777;48.722;8.110;2022-07-04T05:54:18;4.25;;;1.67;;
7471;SDS011;3777;48.722;8.110;2022-07-04T05:56:45;3.83;;;1.75;;
7471;SDS011;3777;48.722;8.110;2022-07-04T05:59:12;2.53;;;1.80;;
7471;SDS011;3777;48.722;8.110;2022-07-04T06:01:39;3.70;;;1.70;;
7471;SDS011;3777;48.722;8.110;2022-07-04T06:04:06;3.10;;;1.75;;
7471;SDS011;3777;48.722;8.110;2022-07-04T06:06:34;1.95;;;1.50;;
7471;SDS011;3777;48.722;8.110;2022-07-04T06:09:01;2.90;;;1.50;;
7471;SDS011;3777;48.722;8.110;2022-07-04T06:11:29;4.32;;;1.52;;
7471;SDS011;3777;48.722;8.110;2022-07-04T06:13:56;1.83;;;1.40;;
7471;SDS011;3777;48.722;8.110;2022-07-04T06:16:23;3.90;;;1.50;;
7471;SDS011;3777;48.722;8.110;2022-07-04T06:18:50;2.28;;;1.58;;
7471;SDS011;3777;48.722;8.110;2022-07-04T06:21:17;4.07;;;1.35;;
7471;SDS011;3777;48.722;8.110;2022-07-04T06:23:46;3.38;;;1.50;;
7471;SDS011;3777;48.722;8.110;2022-07-04T06:26:13;3.13;;;1.65;;
7471;SDS011;3777;48.722;8.110;2022-07-04T06:28:40;3.70;;;1.50;;
7471;SDS011;3777;48.722;8.110;2022-07-04T06:31:07;3.05;;;1.48;;
7471;SDS011;3777;48.722;8.110;2022-07-04T06:33:34;3.38;;;1.55;;
7471;SDS011;3777;48.722;8.110;2022-07-04T06:36:22;2.65;;;1.75;;
7471;SDS011;3777;48.722;8.110;2022-07-04T06:38:49;2.72;;;1.45;;
7471;SDS011;3777;48.722;8.110;2022-07-04T06:41:16;4.13;;;1.48;;
7471;SDS011;3777;48.722;8.110;2022-07-04T06:43:43;3.83;;;1.40;;
7471;SDS011;3777;48.722;8.110;2022-07-04T06:46:10;2.50;;;1.38;;
7471;SDS011;3777;48.722;8.110;2022-07-04T06:48:37;3.20;;;1.63;;
7471;SDS011;3777;48.722;8.110;2022-07-04T06:51:04;3.22;;;1.45;;
7471;SDS011;3777;48.722;8.110;2022-07-04T06:53:32;2.72;;;1.70;;
7471;SDS011;3777;48.722;8.110;2022-07-04T06:56:00;1.67;;;1.27;;
7471;SDS011;3777;48.722;8.110;2022-07-04T06:58:27;1.98;;;1.50;;
7471;SDS011;3777;48.722;8.110;2022-07-04T07:00:54;3.65;;;1.60;;
7471;SDS011;3777;48.722;8.110;2022-07-04T07:03:21;3.35;;;1.60;;
7471;SDS011;3777;48.722;8.110;2022-07-04T07:05:48;3.80;;;1.50;;
7471;SDS011;3777;48.722;8.110;2022-07-04T07:08:15;2.30;;;1.50;;
7471;SDS011;3777;48.722;8.110;2022-07-04T07:10:42;3.45;;;1.50;;
7471;SDS011;3777;48.722;8.110;2022-07-04T07:13:10;4.75;;;1.80;;
7471;SDS011;3777;48.722;8.110;2022-07-04T07:15:37;3.67;;;1.42;;
7471;SDS011;3777;48.722;8.110;2022-07-04T07:18:05;2.25;;;1.50;;
7471;SDS011;3777;48.722;8.110;2022-07-04T07:20:32;4.57;;;1.67;;
7471;SDS011;3777;48.722;8.110;2022-07-04T07:23:01;2.47;;;1.55;;
7471;SDS011;3777;48.722;8.110;2022-07-04T07:25:28;3.50;;;1.70;;
7471;SDS011;3777;48.722;8.110;2022-07-04T07:27:55;2.90;;;1.58;;
7471;SDS011;3777;48.722;8.110;2022-07-04T07:30:24;2.88;;;1.70;;
7471;SDS011;3777;48.722;8.110;2022-07-04T07:32:51;3.88;;;1.60;;
7471;SDS011;3777;48.722;8.110;2022-07-04T07:35:18;3.72;;;1.55;;
7471;SDS011;3777;48.722;8.110;2022-07-04T07:37:46;4.45;;;1.90;;
7471;SDS011;3777;48.722;8.110;2022-07-04T07:40:13;5.50;;;2.03;;
7471;SDS011;3777;48.722;8.110;2022-07-04T07:42:40;2.55;;;1.75;;
7471;SDS011;3777;48.722;8.110;2022-07-04T07:45:07;2.70;;;1.83;;
7471;SDS011;3777;48.722;8.110;2022-07-04T07:47:36;3.83;;;1.70;;
7471;SDS011;3777;48.722;8.110;2022-07-04T07:50:03;3.17;;;1.70;;
7471;SDS011;3777;48.722;8.110;2022-07-04T07:52:31;4.70;;;1.70;;
7471;SDS011;3777;48.722;8.110;2022-07-04T07:54:58;3.20;;;1.50;;
7471;SDS011;3777;48.722;8.110;2022-07-04T07:57:25;5.50;;;1.90;;
7471;SDS011;3777;48.722;8.110;2022-07-04T07:59:52;4.60;;;1.77;;
7471;SDS011;3777;48.722;8.110;2022-07-04T08:02:19;4.40;;;1.58;;
7471;SDS011;3777;48.722;8.110;2022-07-04T08:05:09;4.05;;;1.83;;
7471;SDS011;3777;48.722;8.110;2022-07-04T08:07:36;3.28;;;1.80;;
7471;SDS011;3777;48.722;8.110;2022-07-04T08:10:05;3.47;;;1.70;;
7471;SDS011;3777;48.722;8.110;2022-07-04T08:12:33;5.35;;;1.73;;
7471;SDS011;3777;48.722;8.110;2022-07-04T08:15:00;2.35;;;1.70;;
7471;SDS011;3777;48.722;8.110;2022-07-04T08:17:27;3.40;;;1.70;;
7471;SDS011;3777;48.722;8.110;2022-07-04T08:19:54;2.67;;;1.60;;
7471;SDS011;3777;48.722;8.110;2022-07-04T08:22:22;2.38;;;1.70;;
7471;SDS011;3777;48.722;8.110;2022-07-04T08:24:49;3.90;;;1.70;;
7471;SDS011;3777;48.722;8.110;2022-07-04T08:27:16;4.53;;;1.67;;
7471;SDS011;3777;48.722;8.110;2022-07-04T08:29:43;3.50;;;1.70;;
7471;SDS011;3777;48.722;8.110;2022-07-04T08:32:10;4.13;;;1.80;;
7471;SDS011;3777;48.722;8.110;2022-07-04T08:34:37;4.05;;;1.90;;
7471;SDS011;3777;48.722;8.110;2022-07-04T08:37:04;4.57;;;1.80;;
7471;SDS011;3777;48.722;8.110;2022-07-04T08:39:33;4.47;;;1.77;;
7471;SDS011;3777;48.722;8.110;2022-07-04T08:42:02;2.40;;;1.55;;
7471;SDS011;3777;48.722;8.110;2022-07-04T08:44:32;4.45;;;1.90;;
7471;SDS011;3777;48.722;8.110;2022-07-04T08:47:03;3.88;;;1.63;;
7471;SDS011;3777;48.722;8.110;2022-07-04T08:49:32;3.45;;;1.90;;
7471;SDS011;3777;48.722;8.110;2022-07-04T08:52:02;3.03;;;1.70;;
7471;SDS011;3777;48.722;8.110;2022-07-04T08:54:32;2.25;;;1.70;;
7471;SDS011;3777;48.722;8.110;2022-07-04T08:57:17;3.85;;;1.80;;
7471;SDS011;3777;48.722;8.110;2022-07-04T09:00:03;2.50;;;1.77;;
7471;SDS011;3777;48.722;8.110;2022-07-04T09:02:31;2.65;;;1.50;;
7471;SDS011;3777;48.722;8.110;2022-07-04T09:05:01;3.17;;;1.60;;
7471;SDS011;3777;48.722;8.110;2022-07-04T09:07:29;4.10;;;1.67;;
7471;SDS011;3777;48.722;8.110;2022-07-04T09:09:57;3.30;;;1.70;;
7471;SDS011;3777;48.722;8.110;2022-07-04T09:12:25;6.50;;;1.58;;
7471;SDS011;3777;48.722;8.110;2022-07-04T09:14:52;3.13;;;1.60;;
7471;SDS011;3777;48.722;8.110;2022-07-04T09:17:20;4.10;;;1.52;;
7471;SDS011;3777;48.722;8.110;2022-07-04T09:22:39;2.92;;;1.50;;
7471;SDS011;3777;48.722;8.110;2022-07-04T09:25:08;3.03;;;1.42;;
7471;SDS011;3777;48.722;8.110;2022-07-04T09:27:38;2.72;;;1.35;;
7471;SDS011;3777;48.722;8.110;2022-07-04T09:30:07;2.83;;;1.60;;
7471;SDS011;3777;48.722;8.110;2022-07-04T09:32:36;1.98;;;1.48;;
7471;SDS011;3777;48.722;8.110;2022-07-04T09:35:04;2.53;;;1.48;;
7471;SDS011;3777;48.722;8.110;2022-07-04T09:37:33;5.15;;;1.42;;
7471;SDS011;3777;48.722;8.110;2022-07-04T09:40:02;3.38;;;1.65;;
7471;SDS011;3777;48.722;8.110;2022-07-04T09:42:35;3.85;;;1.58;;
7471;SDS011;3777;48.722;8.110;2022-07-04T09:45:06;3.13;;;1.63;;
7471;SDS011;3777;48.722;8.110;2022-07-04T09:47:35;3.05;;;1.50;;
7471;SDS011;3777;48.722;8.110;2022-07-04T09:50:04;3.88;;;1.65;;
7471;SDS011;3777;48.722;8.110;2022-07-04T09:52:33;3.30;;;1.73;;
7471;SDS011;3777;48.722;8.110;2022-07-04T09:55:19;2.60;;;1.55;;
7471;SDS011;3777;48.722;8.110;2022-07-04T09:57:49;3.17;;;1.38;;
7471;SDS011;3777;48.722;8.110;2022-07-04T10:00:17;3.00;;;1.58;;
7471;SDS011;3777;48.722;8.110;2022-07-04T10:02:46;3.88;;;1.45;;
7471;SDS011;3777;48.722;8.110;2022-07-04T10:05:16;3.22;;;1.40;;
7471;SDS011;3777;48.722;8.110;2022-07-04T10:07:46;2.40;;;1.20;;
7471;SDS011;3777;48.722;8.110;2022-07-04T10:10:21;3.05;;;1.60;;
7471;SDS011;3777;48.722;8.110;2022-07-04T10:12:51;2.33;;;1.38;;
7471;SDS011;3777;48.722;8.110;2022-07-04T10:15:20;2.50;;;1.50;;
7471;SDS011;3777;48.722;8.110;2022-07-04T10:17:47;2.40;;;1.45;;
7471;SDS011;3777;48.722;8.110;2022-07-04T10:20:15;1.45;;;1.30;;
7471;SDS011;3777;48.722;8.110;2022-07-04T10:22:42;4.50;;;1.40;;
7471;SDS011;3777;48.722;8.110;2022-07-04T10:25:09;3.70;;;1.50;;
7471;SDS011;3777;48.722;8.110;2022-07-04T10:27:37;2.08;;;1.23;;
7471;SDS011;3777;48.722;8.110;2022-07-04T10:30:06;2.75;;;1.50;;
7471;SDS011;3777;48.722;8.110;2022-07-04T10:32:37;2.50;;;1.50;;
7471;SDS011;3777;48.722;8.110;2022-07-04T10:35:05;2.50;;;1.63;;
7471;SDS011;3777;48.722;8.110;2022-07-04T10:40:42;4.20;;;1.67;;
7471;SDS011;3777;48.722;8.110;2022-07-04T10:49:00;3.65;;;1.65;;
7471;SDS011;3777;48.722;8.110;2022-07-04T10:51:32;3.20;;;1.50;;
7471;SDS011;3777;48.722;8.110;2022-07-04T10:54:05;2.38;;;1.40;;
7471;SDS011;3777;48.722;8.110;2022-07-04T10:56:35;2.60;;;1.50;;
7471;SDS011;3777;48.722;8.110;2022-07-04T10:59:07;2.50;;;1.45;;
7471;SDS011;3777;48.722;8.110;2022-07-04T11:01:37;3.05;;;1.67;;
7471;SDS011;3777;48.722;8.110;2022-07-04T11:04:04;2.85;;;1.50;;
7471;SDS011;3777;48.722;8.110;2022-07-04T11:09:25;2.13;;;1.45;;
7471;SDS011;3777;48.722;8.110;2022-07-04T11:11:54;2.95;;;1.60;;
7471;SDS011;3777;48.722;8.110;2022-07-04T11:14:32;2.50;;;1.45;;
7471;SDS011;3777;48.722;8.110;2022-07-04T11:17:05;3.53;;;1.40;;
7471;SDS011;3777;48.722;8.110;2022-07-04T11:19:33;3.55;;;1.35;;
7471;SDS011;3777;48.722;8.110;2022-07-04T11:22:00;2.40;;;1.50;;
7471;SDS011;3777;48.722;8.110;2022-07-04T11:24:28;2.63;;;1.60;;
7471;SDS011;3777;48.722;8.110;2022-07-04T11:26:55;4.82;;;1.70;;
7471;SDS011;3777;48.722;8.110;2022-07-04T11:29:23;3.45;;;1.80;;
7471;SDS011;3777;48.722;8.110;2022-07-04T11:31:51;3.15;;;1.80;;
7471;SDS011;3777;48.722;8.110;2022-07-04T11:34:20;3.78;;;1.45;;
7471;SDS011;3777;48.722;8.110;2022-07-04T11:36:49;3.40;;;1.65;;
7471;SDS011;3777;48.722;8.110;2022-07-04T11:39:19;3.70;;;1.55;;
7471;SDS011;3777;48.722;8.110;2022-07-04T11:41:48;5.90;;;1.65;;
7471;SDS011;3777;48.722;8.110;2022-07-04T11:44:34;4.35;;;1.63;;
7471;SDS011;3777;48.722;8.110;2022-07-04T11:47:19;3.25;;;1.83;;
7471;SDS011;3777;48.722;8.110;2022-07-04T11:49:50;2.83;;;1.42;;
7471;SDS011;3777;48.722;8.110;2022-07-04T11:52:20;3.35;;;1.45;;
7471;SDS011;3777;48.722;8.110;2022-07-04T11:54:48;2.72;;;1.45;;
7471;SDS011;3777;48.722;8.110;2022-07-04T11:57:17;2.45;;;1.60;;
7471;SDS011;3777;48.722;8.110;2022-07-04T11:59:56;3.70;;;1.80;;
7471;SDS011;3777;48.722;8.110;2022-07-04T12:02:25;3.90;;;1.60;;
7471;SDS011;3777;48.722;8.110;2022-07-04T12:04:54;3.85;;;1.50;;
7471;SDS011;3777;48.722;8.110;2022-07-04T12:07:23;1.75;;;1.52;;
7471;SDS011;3777;48.722;8.110;2022-07-04T12:09:51;2.50;;;1.40;;
7471;SDS011;3777;48.722;8.110;2022-07-04T12:12:20;4.72;;;1.58;;
7471;SDS011;3777;48.722;8.110;2022-07-04T12:14:57;2.08;;;1.30;;
7471;SDS011;3777;48.722;8.110;2022-07-04T12:17:30;4.18;;;1.50;;
7471;SDS011;3777;48.722;8.110;2022-07-04T12:20:01;2.28;;;1.60;;
7471;SDS011;3777;48.722;8.110;2022-07-04T12:22:31;3.35;;;1.52;;
7471;SDS011;3777;48.722;8.110;2022-07-04T12:25:03;5.22;;;1.40;;
7471;SDS011;3777;48.722;8.110;2022-07-04T12:27:32;4.50;;;1.45;;
7471;SDS011;3777;48.722;8.110;2022-07-04T12:30:00;3.50;;;1.50;;
7471;SDS011;3777;48.722;8.110;2022-07-04T12:38:17;1.60;;;1.40;;
7471;SDS011;3777;48.722;8.110;2022-07-04T12:40:51;2.70;;;1.48;;
7471;SDS011;3777;48.722;8.110;2022-07-04T12:43:24;1.90;;;1.40;;
7471;SDS011;3777;48.722;8.110;2022-07-04T12:45:52;2.22;;;1.50;;
7471;SDS011;3777;48.722;8.110;2022-07-04T12:48:26;3.33;;;1.67;;
7471;SDS011;3777;48.722;8.110;2022-07-04T12:51:09;3.25;;;1.50;;
7471;SDS011;3777;48.722;8.110;2022-07-04T12:53:38;3.50;;;1.70;;
7471;SDS011;3777;48.722;8.110;2022-07-04T12:56:07;2.78;;;1.48;;
7471;SDS011;3777;48.722;8.110;2022-07-04T12:58:35;3.35;;;1.60;;
7471;SDS011;3777;48.722;8.110;2022-07-04T13:01:02;2.85;;;1.60;;
7471;SDS011;3777;48.722;8.110;2022-07-04T13:03:29;3.45;;;1.50;;
7471;SDS011;3777;48.722;8.110;2022-07-04T13:05:58;4.00;;;1.80;;
7471;SDS011;3777;48.722;8.110;2022-07-04T13:08:25;2.53;;;1.67;;
7471;SDS011;3777;48.722;8.110;2022-07-04T13:10:52;2.10;;;1.60;;
7471;SDS011;3777;48.722;8.110;2022-07-04T13:13:39;1.85;;;1.50;;
7471;SDS011;3777;48.722;8.110;2022-07-04T13:16:06;4.13;;;1.45;;
7471;SDS011;3777;48.722;8.110;2022-07-04T13:18:33;3.83;;;1.50;;
7471;SDS011;3777;48.722;8.110;2022-07-04T13:21:02;2.55;;;1.70;;
7471;SDS011;3777;48.722;8.110;2022-07-04T13:23:30;4.05;;;1.50;;
7471;SDS011;3777;48.722;8.110;2022-07-04T13:25:56;4.40;;;1.55;;
7471;SDS011;3777;48.722;8.110;2022-07-04T13:28:24;2.20;;;1.50;;
7471;SDS011;3777;48.722;8.110;2022-07-04T13:30:51;1.95;;;1.50;;
7471;SDS011;3777;48.722;8.110;2022-07-04T13:33:18;2.33;;;1.50;;
7471;SDS011;3777;48.722;8.110;2022-07-04T13:35:45;2.53;;;1.25;;
7471;SDS011;3777;48.722;8.110;2022-07-04T13:38:13;2.75;;;1.38;;
7471;SDS011;3777;48.722;8.110;2022-07-04T13:40:41;5.68;;;1.60;;
7471;SDS011;3777;48.722;8.110;2022-07-04T13:43:08;5.18;;;1.80;;
7471;SDS011;3777;48.722;8.110;2022-07-04T13:45:36;2.35;;;1.50;;
7471;SDS011;3777;48.722;8.110;2022-07-04T13:48:04;1.80;;;1.30;;
7471;SDS011;3777;48.722;8.110;2022-07-04T13:50:32;3.83;;;1.40;;
7471;SDS011;3777;48.722;8.110;2022-07-04T13:53:02;3.13;;;1.52;;
7471;SDS011;3777;48.722;8.110;2022-07-04T13:55:31;1.98;;;1.60;;
7471;SDS011;3777;48.722;8.110;2022-07-04T13:57:59;1.77;;;1.50;;
7471;SDS011;3777;48.722;8.110;2022-07-04T14:00:28;1.70;;;1.50;;
7471;SDS011;3777;48.722;8.110;2022-07-04T14:02:55;1.92;;;1.45;;
7471;SDS011;3777;48.722;8.110;2022-07-04T14:05:22;1.77;;;1.50;;
7471;SDS011;3777;48.722;8.110;2022-07-04T14:07:50;2.20;;;1.27;;
7471;SDS011;3777;48.722;8.110;2022-07-04T14:10:17;2.60;;;1.70;;
7471;SDS011;3777;48.722;8.110;2022-07-04T14:12:45;2.95;;;1.45;;
7471;SDS011;3777;48.722;8.110;2022-07-04T14:15:12;2.83;;;1.63;;
7471;SDS011;3777;48.722;8.110;2022-07-04T14:17:39;3.50;;;1.60;;
7471;SDS011;3777;48.722;8.110;2022-07-04T14:20:07;2.88;;;1.40;;
7471;SDS011;3777;48.722;8.110;2022-07-04T14:22:35;2.95;;;1.40;;
7471;SDS011;3777;48.722;8.110;2022-07-04T14:25:03;2.13;;;1.50;;
7471;SDS011;3777;48.722;8.110;2022-07-04T14:27:31;2.58;;;1.40;;
7471;SDS011;3777;48.722;8.110;2022-07-04T14:29:59;3.38;;;1.50;;
7471;SDS011;3777;48.722;8.110;2022-07-04T14:32:26;4.32;;;1.60;;
7471;SDS011;3777;48.722;8.110;2022-07-04T14:34:54;3.08;;;1.50;;
7471;SDS011;3777;48.722;8.110;2022-07-04T14:37:21;4.50;;;1.60;;
7471;SDS011;3777;48.722;8.110;2022-07-04T14:39:48;1.77;;;1.50;;
7471;SDS011;3777;48.722;8.110;2022-07-04T14:42:15;1.77;;;1.35;;
7471;SDS011;3777;48.722;8.110;2022-07-04T14:44:42;2.60;;;1.30;;
7471;SDS011;3777;48.722;8.110;2022-07-04T14:47:11;2.15;;;1.50;;
7471;SDS011;3777;48.722;8.110;2022-07-04T14:49:38;3.08;;;1.55;;
7471;SDS011;3777;48.722;8.110;2022-07-04T14:52:05;5.60;;;1.60;;
7471;SDS011;3777;48.722;8.110;2022-07-04T14:54:32;3.45;;;1.52;;
7471;SDS011;3777;48.722;8.110;2022-07-04T14:56:59;2.05;;;1.50;;
7471;SDS011;3777;48.722;8.110;2022-07-04T14:59:26;2.50;;;1.60;;
7471;SDS011;3777;48.722;8.110;2022-07-04T15:01:53;2.63;;;1.80;;
7471;SDS011;3777;48.722;8.110;2022-07-04T15:04:21;1.75;;;1.30;;
7471;SDS011;3777;48.722;8.110;2022-07-04T15:06:48;3.13;;;1.50;;
7471;SDS011;3777;48.722;8.110;2022-07-04T15:09:15;2.92;;;1.40;;
7471;SDS011;3777;48.722;8.110;2022-07-04T15:11:42;6.53;;;2.08;;
7471;SDS011;3777;48.722;8.110;2022-07-04T15:14:12;1.60;;;1.50;;
7471;SDS011;3777;48.722;8.110;2022-07-04T15:16:39;2.45;;;1.40;;
7471;SDS011;3777;48.722;8.110;2022-07-04T15:19:06;1.70;;;1.40;;
7471;SDS011;3777;48.722;8.110;2022-07-04T15:21:35;2.53;;;1.33;;
7471;SDS011;3777;48.722;8.110;2022-07-04T15:24:19;3.17;;;1.55;;
7471;SDS011;3777;48.722;8.110;2022-07-04T15:26:46;3.05;;;1.50;;
7471;SDS011;3777;48.722;8.110;2022-07-04T15:29:15;3.90;;;1.50;;
7471;SDS011;3777;48.722;8.110;2022-07-04T15:31:43;2.33;;;1.45;;
7471;SDS011;3777;48.722;8.110;2022-07-04T15:34:11;2.33;;;1.40;;
7471;SDS011;3777;48.722;8.110;2022-07-04T15:36:39;4.05;;;1.50;;
7471;SDS011;3777;48.722;8.110;2022-07-04T15:39:07;1.38;;;1.13;;
7471;SDS011;3777;48.722;8.110;2022-07-04T15:41:36;1.83;;;1.35;;
7471;SDS011;3777;48.722;8.110;2022-07-04T15:44:04;2.35;;;1.40;;